createdAt,value
2019-02-16T00:00:07.802Z,64.45
2019-02-16T00:01:08.008Z,63.96
2019-02-16T00:02:05.198Z,63.96
2019-02-16T00:03:06.681Z,63.96
2019-02-16T00:04:09.418Z,64.21
2019-02-16T00:05:05.311Z,64.70
2019-02-16T00:06:05.479Z,64.21
2019-02-16T00:07:05.674Z,64.21
2019-02-16T00:08:05.811Z,64.21
2019-02-16T00:09:05.974Z,64.70
2019-02-16T00:10:06.140Z,63.96
2019-02-16T00:11:06.299Z,63.96
2019-02-16T00:12:06.498Z,64.21
2019-02-16T00:13:06.639Z,64.21
2019-02-16T00:14:06.802Z,64.45
2019-02-16T00:15:07.288Z,64.45
2019-02-16T00:16:07.102Z,63.96
2019-02-16T00:17:07.551Z,64.45
2019-02-16T00:18:07.391Z,63.72
2019-02-16T00:19:10.401Z,63.96
2019-02-16T00:20:15.612Z,64.45
2019-02-16T00:21:16.220Z,63.72
2019-02-16T00:22:15.867Z,63.48
2019-02-16T00:23:08.291Z,63.72
2019-02-16T00:24:08.574Z,64.21
2019-02-16T00:25:08.424Z,63.72
2019-02-16T00:26:08.634Z,63.23
2019-02-16T00:27:08.716Z,63.48
2019-02-16T00:28:09.063Z,63.72
2019-02-16T00:29:09.030Z,63.96
2019-02-16T00:30:09.215Z,63.72
2019-02-16T00:31:09.554Z,63.48
2019-02-16T00:32:09.556Z,64.21
2019-02-16T00:33:09.662Z,64.21
2019-02-16T00:34:09.728Z,63.23
2019-02-16T00:35:09.921Z,63.72
2019-02-16T00:36:10.098Z,63.96
2019-02-16T00:37:10.321Z,63.96
2019-02-16T00:38:10.551Z,63.72
2019-02-16T00:39:10.621Z,64.21
2019-02-16T00:40:10.901Z,63.96
2019-02-16T00:41:10.996Z,63.48
2019-02-16T00:42:11.066Z,63.23
2019-02-16T00:43:11.171Z,63.72
2019-02-16T00:44:11.287Z,63.48
2019-02-16T00:45:11.518Z,63.72
2019-02-16T00:46:11.578Z,63.48
2019-02-16T00:47:11.781Z,63.72
2019-02-16T00:48:11.975Z,63.48
2019-02-16T00:49:12.267Z,63.48
2019-02-16T00:50:12.382Z,63.96
2019-02-16T00:51:13.922Z,63.72
2019-02-16T00:52:12.800Z,64.45
2019-02-16T00:53:12.942Z,63.72
2019-02-16T00:54:13.066Z,63.72
2019-02-16T00:55:13.153Z,63.48
2019-02-16T00:56:13.386Z,64.70
2019-02-16T00:57:13.461Z,63.23
2019-02-16T00:58:13.701Z,63.48
2019-02-16T00:59:13.947Z,63.96
2019-02-16T01:00:13.920Z,63.48
2019-02-16T01:01:14.047Z,63.23
2019-02-16T01:02:14.159Z,63.48
2019-02-16T01:03:14.313Z,64.45
2019-02-16T01:04:14.578Z,63.72
2019-02-16T01:05:14.635Z,63.48
2019-02-16T01:06:14.899Z,63.72
2019-02-16T01:07:14.970Z,63.48
2019-02-16T01:08:15.192Z,63.72
2019-02-16T01:09:15.297Z,63.23
2019-02-16T01:10:15.450Z,63.72
2019-02-16T01:11:15.733Z,63.96
2019-02-16T01:12:15.739Z,63.48
2019-02-16T01:13:15.848Z,63.48
2019-02-16T01:14:15.918Z,63.48
2019-02-16T01:15:16.170Z,63.48
2019-02-16T01:16:16.378Z,63.96
2019-02-16T01:17:16.436Z,63.48
2019-02-16T01:18:16.624Z,63.96
2019-02-16T01:19:16.823Z,63.48
2019-02-16T01:20:17.027Z,63.48
2019-02-16T01:21:22.731Z,63.23
2019-02-16T01:22:17.397Z,63.48
2019-02-16T01:23:17.562Z,63.48
2019-02-16T01:24:17.665Z,63.96
2019-02-16T01:25:17.796Z,64.21
2019-02-16T01:26:17.889Z,63.23
2019-02-16T01:27:18.173Z,63.96
2019-02-16T01:28:18.246Z,63.48
2019-02-16T01:29:22.267Z,63.48
2019-02-16T01:30:19.707Z,63.96
2019-02-16T01:31:18.803Z,63.48
2019-02-16T01:32:19.142Z,63.48
2019-02-16T01:33:19.250Z,63.72
2019-02-16T01:34:19.380Z,64.45
2019-02-16T01:35:19.484Z,64.21
2019-02-16T01:36:19.568Z,63.72
2019-02-16T01:37:19.780Z,63.48
2019-02-16T01:38:20.017Z,63.23
2019-02-16T01:39:21.581Z,63.72
2019-02-16T01:40:20.287Z,63.96
2019-02-16T01:41:20.350Z,63.48
2019-02-16T01:42:20.580Z,63.48
2019-02-16T01:43:20.782Z,63.23
2019-02-16T01:44:21.062Z,64.45
2019-02-16T01:45:21.206Z,63.72
2019-02-16T01:46:21.261Z,63.23
2019-02-16T01:47:21.494Z,63.48
2019-02-16T01:48:21.690Z,63.48
2019-02-16T01:49:21.903Z,64.45
2019-02-16T01:50:22.157Z,63.48
2019-02-16T01:51:31.274Z,62.99
2019-02-16T01:52:22.456Z,64.45
2019-02-16T01:53:22.555Z,64.21
2019-02-16T01:54:22.617Z,63.96
2019-02-16T01:55:22.830Z,63.72
2019-02-16T01:56:23.038Z,62.99
2019-02-16T01:57:23.229Z,63.48
2019-02-16T01:58:23.502Z,64.21
2019-02-16T01:59:23.595Z,63.23
2019-02-16T02:00:23.689Z,65.67
2019-02-16T02:01:23.873Z,62.99
2019-02-16T02:02:24.077Z,64.45
2019-02-16T02:03:24.268Z,63.72
2019-02-16T02:04:24.487Z,62.99
2019-02-16T02:05:24.674Z,63.48
2019-02-16T02:06:24.749Z,63.72
2019-02-16T02:07:24.859Z,64.21
2019-02-16T02:08:25.043Z,63.72
2019-02-16T02:09:25.285Z,64.21
2019-02-16T02:10:25.498Z,63.96
2019-02-16T02:11:25.459Z,63.96
2019-02-16T02:12:25.583Z,64.94
2019-02-16T02:13:25.657Z,64.70
2019-02-16T02:14:25.849Z,63.96
2019-02-16T02:15:26.068Z,63.96
2019-02-16T02:16:26.129Z,63.23
2019-02-16T02:17:26.315Z,63.48
2019-02-16T02:18:26.546Z,64.45
2019-02-16T02:19:26.608Z,63.96
2019-02-16T02:20:26.806Z,63.23
2019-02-16T02:21:27.075Z,64.45
2019-02-16T02:22:27.145Z,64.94
2019-02-16T02:23:27.333Z,64.21
2019-02-16T02:24:27.532Z,63.23
2019-02-16T02:25:27.710Z,63.96
2019-02-16T02:26:27.954Z,64.21
2019-02-16T02:27:28.100Z,63.23
2019-02-16T02:28:28.173Z,64.45
2019-02-16T02:29:28.384Z,64.21
2019-02-16T02:30:28.602Z,64.45
2019-02-16T02:31:28.683Z,64.45
2019-02-16T02:32:28.918Z,64.21
2019-02-16T02:33:29.036Z,64.45
2019-02-16T02:34:29.099Z,64.45
2019-02-16T02:35:29.315Z,64.21
2019-02-16T02:36:29.405Z,65.19
2019-02-16T02:37:29.585Z,63.96
2019-02-16T02:38:29.813Z,64.45
2019-02-16T02:39:30.002Z,63.96
2019-02-16T02:40:30.221Z,64.70
2019-02-16T02:41:30.371Z,63.48
2019-02-16T02:42:30.586Z,65.43
2019-02-16T02:43:30.788Z,64.45
2019-02-16T02:44:30.989Z,64.45
2019-02-16T02:45:31.215Z,64.45
2019-02-16T02:46:31.401Z,64.21
2019-02-16T02:47:31.639Z,64.94
2019-02-16T02:48:31.715Z,64.70
2019-02-16T02:49:31.903Z,64.21
2019-02-16T02:50:32.118Z,64.70
2019-02-16T02:51:32.333Z,64.45
2019-02-16T02:52:32.569Z,64.21
2019-02-16T02:53:32.635Z,64.70
2019-02-16T02:54:32.889Z,64.21
2019-02-16T02:55:33.042Z,65.19
2019-02-16T02:56:33.258Z,64.94
2019-02-16T02:57:33.439Z,65.19
2019-02-16T02:58:33.640Z,65.43
2019-02-16T02:59:33.822Z,63.96
2019-02-16T03:00:34.053Z,64.70
2019-02-16T03:01:34.121Z,64.45
2019-02-16T03:02:34.467Z,63.96
2019-02-16T03:03:34.407Z,64.21
2019-02-16T03:04:34.603Z,65.67
2019-02-16T03:05:34.791Z,64.45
2019-02-16T03:06:34.993Z,64.70
2019-02-16T03:07:35.192Z,64.21
2019-02-16T03:08:35.381Z,64.45
2019-02-16T03:09:35.639Z,64.45
2019-02-16T03:10:35.754Z,64.45
2019-02-16T03:11:35.890Z,64.21
2019-02-16T03:12:36.123Z,64.21
2019-02-16T03:13:36.315Z,64.70
2019-02-16T03:14:36.327Z,64.45
2019-02-16T03:15:36.468Z,64.94
2019-02-16T03:16:40.817Z,64.45
2019-02-16T03:17:36.680Z,64.70
2019-02-16T03:18:38.813Z,64.70
2019-02-16T03:19:36.969Z,64.21
2019-02-16T03:20:37.088Z,64.45
2019-02-16T03:21:37.150Z,64.21
2019-02-16T03:22:37.429Z,63.96
2019-02-16T03:23:37.583Z,64.45
2019-02-16T03:24:37.692Z,64.94
2019-02-16T03:25:37.909Z,64.70
2019-02-16T03:26:37.994Z,64.70
2019-02-16T03:27:38.235Z,64.45
2019-02-16T03:28:38.299Z,64.45
2019-02-16T03:29:38.501Z,64.94
2019-02-16T03:30:38.819Z,64.94
2019-02-16T03:31:38.920Z,64.94
2019-02-16T03:32:39.059Z,64.70
2019-02-16T03:33:39.141Z,65.43
2019-02-16T03:34:39.336Z,64.70
2019-02-16T03:35:39.570Z,64.45
2019-02-16T03:36:39.655Z,64.21
2019-02-16T03:37:39.857Z,64.21
2019-02-16T03:38:40.050Z,64.45
2019-02-16T03:39:40.264Z,64.70
2019-02-16T03:40:40.536Z,64.45
2019-02-16T03:41:40.626Z,64.45
2019-02-16T03:42:40.838Z,64.45
2019-02-16T03:43:40.928Z,64.94
2019-02-16T03:44:41.158Z,64.45
2019-02-16T03:45:41.229Z,64.21
2019-02-16T03:46:41.504Z,65.19
2019-02-16T03:47:41.612Z,64.21
2019-02-16T03:48:41.698Z,64.45
2019-02-16T03:49:41.870Z,64.94
2019-02-16T03:50:42.143Z,63.96
2019-02-16T03:51:42.202Z,64.45
2019-02-16T03:52:42.415Z,64.70
2019-02-16T03:53:42.627Z,64.45
2019-02-16T03:54:42.760Z,64.45
2019-02-16T03:55:42.874Z,64.45
2019-02-16T03:56:42.959Z,64.70
2019-02-16T03:57:43.154Z,65.19
2019-02-16T03:58:43.371Z,65.19
2019-02-16T03:59:43.578Z,64.70
2019-02-16T04:00:43.819Z,64.94
2019-02-16T04:01:43.894Z,64.45
2019-02-16T04:02:44.731Z,64.45
2019-02-16T04:03:44.309Z,64.45
2019-02-16T04:04:44.424Z,65.43
2019-02-16T04:05:44.481Z,64.70
2019-02-16T04:06:44.678Z,64.70
2019-02-16T04:07:44.927Z,64.45
2019-02-16T04:08:45.122Z,64.45
2019-02-16T04:09:45.174Z,63.96
2019-02-16T04:10:45.371Z,64.45
2019-02-16T04:11:45.589Z,64.45
2019-02-16T04:12:45.653Z,64.45
2019-02-16T04:13:45.884Z,64.21
2019-02-16T04:14:45.963Z,64.21
2019-02-16T04:15:46.161Z,64.21
2019-02-16T04:16:46.437Z,63.96
2019-02-16T04:17:46.501Z,63.96
2019-02-16T04:18:46.600Z,64.21
2019-02-16T04:19:46.779Z,64.45
2019-02-16T04:20:47.299Z,63.72
2019-02-16T04:21:47.087Z,63.72
2019-02-16T04:22:47.113Z,66.65
2019-02-16T04:23:47.291Z,63.96
2019-02-16T04:24:47.441Z,64.21
2019-02-16T04:25:47.526Z,64.45
2019-02-16T04:26:47.731Z,65.19
2019-02-16T04:27:48.057Z,64.70
2019-02-16T04:28:48.102Z,64.70
2019-02-16T04:29:48.246Z,63.96
2019-02-16T04:30:48.326Z,64.70
2019-02-16T04:31:48.510Z,64.70
2019-02-16T04:32:48.716Z,64.21
2019-02-16T04:33:48.911Z,64.45
2019-02-16T04:34:49.121Z,64.45
2019-02-16T04:35:49.324Z,65.19
2019-02-16T04:36:49.560Z,64.45
2019-02-16T04:37:49.640Z,63.96
2019-02-16T04:38:49.921Z,63.96
2019-02-16T04:39:49.984Z,64.70
2019-02-16T04:40:50.172Z,64.45
2019-02-16T04:41:50.475Z,64.70
2019-02-16T04:42:50.552Z,64.70
2019-02-16T04:43:50.771Z,64.70
2019-02-16T04:44:51.059Z,64.70
2019-02-16T04:45:51.211Z,63.96
2019-02-16T04:46:51.298Z,64.21
2019-02-16T04:47:51.412Z,64.70
2019-02-16T04:48:51.659Z,64.94
2019-02-16T04:49:51.764Z,64.70
2019-02-16T04:50:51.949Z,65.43
2019-02-16T04:51:52.032Z,66.16
2019-02-16T04:52:52.272Z,64.45
2019-02-16T04:53:52.365Z,64.70
2019-02-16T04:54:52.458Z,64.94
2019-02-16T04:55:52.706Z,63.96
2019-02-16T04:56:53.372Z,64.45
2019-02-16T04:57:53.012Z,63.96
2019-02-16T04:58:53.193Z,64.21
2019-02-16T04:59:53.332Z,63.72
2019-02-16T05:00:54.335Z,64.21
2019-02-16T05:01:53.528Z,63.96
2019-02-16T05:02:53.726Z,64.21
2019-02-16T05:03:53.936Z,64.21
2019-02-16T05:04:54.115Z,63.72
2019-02-16T05:05:54.335Z,64.21
2019-02-16T05:06:54.429Z,65.43
2019-02-16T05:07:54.624Z,63.96
2019-02-16T05:08:54.729Z,64.21
2019-02-16T05:09:54.882Z,64.21
2019-02-16T05:10:54.990Z,63.96
2019-02-16T05:11:55.125Z,64.45
2019-02-16T05:12:55.201Z,64.70
2019-02-16T05:13:55.380Z,64.21
2019-02-16T05:14:55.714Z,64.70
2019-02-16T05:15:55.681Z,65.43
2019-02-16T05:16:55.895Z,65.19
2019-02-16T05:17:56.009Z,64.21
2019-02-16T05:18:56.223Z,64.70
2019-02-16T05:19:56.472Z,63.96
2019-02-16T05:20:56.555Z,64.70
2019-02-16T05:21:56.734Z,64.45
2019-02-16T05:22:56.931Z,63.96
2019-02-16T05:23:57.118Z,63.96
2019-02-16T05:24:57.311Z,63.96
2019-02-16T05:25:57.503Z,64.21
2019-02-16T05:26:57.789Z,63.72
2019-02-16T05:27:57.890Z,63.96
2019-02-16T05:28:58.051Z,63.96
2019-02-16T05:29:58.151Z,63.96
2019-02-16T05:30:58.229Z,63.72
2019-02-16T05:31:58.355Z,63.72
2019-02-16T05:32:58.420Z,64.21
2019-02-16T05:33:58.630Z,64.70
2019-02-16T05:34:58.816Z,65.67
2019-02-16T05:35:59.030Z,63.96
2019-02-16T05:36:59.229Z,69.09
2019-02-16T05:37:59.409Z,64.45
2019-02-16T05:38:59.542Z,63.96
2019-02-16T05:39:59.889Z,63.96
2019-02-16T05:40:59.850Z,64.70
2019-02-16T05:42:00.063Z,63.72
2019-02-16T05:43:00.238Z,63.72
2019-02-16T05:44:00.365Z,64.70
2019-02-16T05:45:00.436Z,64.45
2019-02-16T05:46:00.793Z,64.21
2019-02-16T05:47:00.731Z,64.21
2019-02-16T05:48:00.980Z,64.21
2019-02-16T05:49:01.123Z,63.72
2019-02-16T05:50:01.184Z,63.72
2019-02-16T05:51:01.387Z,63.72
2019-02-16T05:52:01.565Z,64.45
2019-02-16T05:53:01.766Z,64.94
2019-02-16T05:54:02.117Z,63.96
2019-02-16T05:55:02.242Z,64.21
2019-02-16T05:56:02.189Z,63.72
2019-02-16T05:57:02.399Z,63.72
2019-02-16T05:58:02.620Z,63.96
2019-02-16T05:59:02.697Z,63.96
2019-02-16T06:00:02.913Z,63.72
2019-02-16T06:01:03.154Z,64.21
2019-02-16T06:02:03.243Z,65.19
2019-02-16T06:03:04.079Z,64.94
2019-02-16T06:04:03.743Z,66.41
2019-02-16T06:05:03.847Z,67.14
2019-02-16T06:06:03.943Z,64.94
2019-02-16T06:07:05.641Z,66.41
2019-02-16T06:08:04.187Z,65.19
2019-02-16T06:09:04.452Z,67.63
2019-02-16T06:10:04.557Z,66.41
2019-02-16T06:11:06.009Z,66.65
2019-02-16T06:12:04.848Z,65.92
2019-02-16T06:13:04.924Z,67.38
2019-02-16T06:14:05.228Z,65.92
2019-02-16T06:15:05.301Z,65.43
2019-02-16T06:16:05.505Z,64.70
2019-02-16T06:17:05.689Z,65.92
2019-02-16T06:18:05.910Z,63.96
2019-02-16T06:19:06.095Z,63.96
2019-02-16T06:20:06.263Z,63.96
2019-02-16T06:21:06.336Z,63.96
2019-02-16T06:22:06.544Z,64.45
2019-02-16T06:23:06.651Z,64.45
2019-02-16T06:24:06.725Z,64.94
2019-02-16T06:25:06.942Z,63.96
2019-02-16T06:26:07.286Z,64.21
2019-02-16T06:27:07.378Z,64.21
2019-02-16T06:28:07.529Z,64.45
2019-02-16T06:29:07.637Z,64.21
2019-02-16T06:30:08.233Z,66.16
2019-02-16T06:31:07.956Z,70.56
2019-02-16T06:32:08.073Z,64.21
2019-02-16T06:33:08.198Z,63.96
2019-02-16T06:34:08.265Z,64.21
2019-02-16T06:35:08.505Z,64.21
2019-02-16T06:36:08.589Z,63.48
2019-02-16T06:37:08.804Z,63.23
2019-02-16T06:38:09.023Z,64.21
2019-02-16T06:39:09.110Z,63.96
2019-02-16T06:40:09.313Z,64.45
2019-02-16T06:41:09.503Z,63.96
2019-02-16T06:42:09.766Z,63.48
2019-02-16T06:43:09.890Z,64.70
2019-02-16T06:44:09.961Z,63.96
2019-02-16T06:45:10.192Z,64.45
2019-02-16T06:46:10.303Z,64.21
2019-02-16T06:47:10.426Z,64.21
2019-02-16T06:48:10.602Z,64.21
2019-02-16T06:49:10.933Z,64.21
2019-02-16T06:50:10.988Z,64.45
2019-02-16T06:51:11.222Z,63.96
2019-02-16T06:52:11.382Z,63.96
2019-02-16T06:53:13.539Z,65.92
2019-02-16T06:54:11.789Z,63.96
2019-02-16T06:55:12.081Z,63.96
2019-02-16T06:56:12.227Z,63.96
2019-02-16T06:57:12.293Z,64.70
2019-02-16T06:58:12.528Z,64.70
2019-02-16T06:59:12.702Z,64.70
2019-02-16T07:00:12.902Z,64.70
2019-02-16T07:01:13.166Z,64.45
2019-02-16T07:02:13.976Z,64.45
2019-02-16T07:03:13.704Z,64.70
2019-02-16T07:04:13.714Z,64.21
2019-02-16T07:05:13.809Z,63.96
2019-02-16T07:06:13.878Z,64.70
2019-02-16T07:07:15.275Z,65.19
2019-02-16T07:08:14.370Z,65.43
2019-02-16T07:09:14.372Z,65.67
2019-02-16T07:10:14.558Z,65.67
2019-02-16T07:11:14.808Z,65.19
2019-02-16T07:12:14.924Z,65.43
2019-02-16T07:13:15.021Z,65.43
2019-02-16T07:14:15.108Z,63.72
2019-02-16T07:15:15.317Z,60.79
2019-02-16T07:16:15.564Z,59.57
2019-02-16T07:17:15.641Z,59.33
2019-02-16T07:18:15.944Z,60.06
2019-02-16T07:19:16.023Z,59.08
2019-02-16T07:20:16.239Z,59.81
2019-02-16T07:21:16.335Z,61.77
2019-02-16T07:22:16.585Z,60.55
2019-02-16T07:23:22.549Z,61.04
2019-02-16T07:24:16.964Z,64.45
2019-02-16T07:25:17.071Z,71.53
2019-02-16T07:26:17.235Z,59.81
2019-02-16T07:27:17.395Z,59.08
2019-02-16T07:28:17.500Z,60.06
2019-02-16T07:29:17.578Z,58.35
2019-02-16T07:30:17.830Z,57.86
2019-02-16T07:31:17.961Z,57.86
2019-02-16T07:32:18.136Z,58.59
2019-02-16T07:33:18.293Z,57.86
2019-02-16T07:34:18.391Z,59.57
2019-02-16T07:35:18.476Z,58.84
2019-02-16T07:36:18.726Z,60.55
2019-02-16T07:37:18.825Z,59.81
2019-02-16T07:38:19.011Z,59.33
2019-02-16T07:39:19.221Z,58.35
2019-02-16T07:40:19.452Z,58.35
2019-02-16T07:41:19.621Z,57.86
2019-02-16T07:42:19.696Z,56.88
2019-02-16T07:43:19.933Z,59.08
2019-02-16T07:44:20.200Z,59.08
2019-02-16T07:45:20.259Z,58.35
2019-02-16T07:46:20.315Z,58.11
2019-02-16T07:47:20.531Z,60.55
2019-02-16T07:48:20.800Z,60.06
2019-02-16T07:49:22.735Z,62.01
2019-02-16T07:50:23.028Z,62.50
2019-02-16T07:51:21.404Z,66.65
2019-02-16T07:52:21.292Z,61.52
2019-02-16T07:53:21.604Z,61.04
2019-02-16T07:54:21.750Z,59.57
2019-02-16T07:55:21.911Z,61.28
2019-02-16T07:56:22.470Z,57.86
2019-02-16T07:57:22.505Z,59.57
2019-02-16T07:58:22.352Z,60.55
2019-02-16T07:59:22.550Z,58.11
2019-02-16T08:00:22.736Z,58.59
2019-02-16T08:01:22.887Z,56.15
2019-02-16T08:02:24.005Z,56.88
2019-02-16T08:03:23.209Z,57.37
2019-02-16T08:04:23.747Z,67.63
2019-02-16T08:05:23.391Z,53.47
2019-02-16T08:06:24.898Z,55.66
2019-02-16T08:07:23.845Z,53.47
2019-02-16T08:08:24.271Z,55.66
2019-02-16T08:09:24.341Z,63.23
2019-02-16T08:10:24.327Z,59.81
2019-02-16T08:11:24.470Z,54.69
2019-02-16T08:12:24.533Z,58.11
2019-02-16T08:13:24.884Z,54.93
2019-02-16T08:14:24.940Z,63.96
2019-02-16T08:15:25.418Z,53.47
2019-02-16T08:16:25.807Z,55.42
2019-02-16T08:17:25.218Z,58.59
2019-02-16T08:18:32.892Z,54.20
2019-02-16T08:19:36.639Z,55.91
2019-02-16T08:20:33.401Z,55.91
2019-02-16T08:21:35.021Z,55.42
2019-02-16T08:22:26.568Z,58.11
2019-02-16T08:23:40.181Z,59.08
2019-02-16T08:24:26.518Z,59.33
2019-02-16T08:25:26.640Z,58.59
2019-02-16T08:26:26.698Z,58.11
2019-02-16T08:27:26.915Z,56.15
2019-02-16T08:28:27.062Z,56.88
2019-02-16T08:29:27.300Z,58.59
2019-02-16T08:30:27.403Z,57.62
2019-02-16T08:31:27.632Z,58.84
2019-02-16T08:32:27.854Z,57.13
2019-02-16T08:33:28.124Z,56.64
2019-02-16T08:34:28.246Z,57.13
2019-02-16T08:35:28.586Z,56.88
2019-02-16T08:36:31.485Z,55.91
2019-02-16T08:37:28.686Z,59.08
2019-02-16T08:38:30.063Z,58.35
2019-02-16T08:39:49.997Z,58.11
2019-02-16T08:40:29.401Z,56.40
2019-02-16T08:41:29.519Z,60.06
2019-02-16T08:42:29.470Z,57.62
2019-02-16T08:43:29.817Z,57.62
2019-02-16T08:44:29.921Z,57.37
2019-02-16T08:45:30.055Z,56.88
2019-02-16T08:46:30.129Z,58.11
2019-02-16T08:47:30.372Z,58.84
2019-02-16T08:48:30.627Z,58.59
2019-02-16T08:49:31.179Z,61.77
2019-02-16T08:50:30.877Z,60.55
2019-02-16T08:51:31.146Z,56.88
2019-02-16T08:52:31.442Z,56.88
2019-02-16T08:53:31.474Z,55.91
2019-02-16T08:54:31.569Z,55.42
2019-02-16T08:55:32.017Z,59.08
2019-02-16T08:56:32.039Z,55.91
2019-02-16T08:57:32.186Z,56.64
2019-02-16T08:58:32.173Z,57.62
2019-02-16T08:59:32.372Z,58.11
2019-02-16T09:00:32.376Z,58.35
2019-02-16T09:01:32.685Z,57.86
2019-02-16T09:02:32.763Z,57.62
2019-02-16T09:03:32.860Z,57.37
2019-02-16T09:04:33.127Z,56.40
2019-02-16T09:05:33.223Z,63.72
2019-02-16T09:06:33.429Z,62.26
2019-02-16T09:07:34.044Z,58.11
2019-02-16T09:08:33.831Z,57.62
2019-02-16T09:09:33.995Z,57.13
2019-02-16T09:10:34.148Z,62.74
2019-02-16T09:11:34.265Z,60.06
2019-02-16T09:12:34.411Z,60.06
2019-02-16T09:13:34.552Z,58.35
2019-02-16T09:14:34.625Z,65.67
2019-02-16T09:15:34.886Z,66.41
2019-02-16T09:16:36.941Z,64.70
2019-02-16T09:17:35.229Z,63.72
2019-02-16T09:18:35.346Z,57.62
2019-02-16T09:19:35.546Z,58.59
2019-02-16T09:20:35.629Z,57.37
2019-02-16T09:21:35.743Z,57.62
2019-02-16T09:22:36.436Z,57.86
2019-02-16T09:23:36.037Z,57.62
2019-02-16T09:24:36.154Z,56.15
2019-02-16T09:25:36.287Z,58.84
2019-02-16T09:26:36.447Z,54.44
2019-02-16T09:27:36.560Z,57.13
2019-02-16T09:28:36.782Z,58.84
2019-02-16T09:29:36.924Z,58.59
2019-02-16T09:30:37.039Z,56.88
2019-02-16T09:31:37.115Z,57.62
2019-02-16T09:32:37.352Z,54.93
2019-02-16T09:33:37.452Z,55.66
2019-02-16T09:34:37.592Z,55.18
2019-02-16T09:35:37.697Z,57.13
2019-02-16T09:36:37.790Z,55.42
2019-02-16T09:37:38.038Z,58.59
2019-02-16T09:38:38.163Z,57.13
2019-02-16T09:39:38.282Z,54.69
2019-02-16T09:40:38.503Z,55.66
2019-02-16T09:41:41.083Z,59.33
2019-02-16T09:42:39.235Z,60.55
2019-02-16T09:43:40.016Z,65.92
2019-02-16T09:44:40.618Z,64.45
2019-02-16T09:45:39.333Z,56.64
2019-02-16T09:46:39.312Z,62.26
2019-02-16T09:47:39.485Z,60.30
2019-02-16T09:48:40.346Z,56.64
2019-02-16T09:49:39.919Z,69.34
2019-02-16T09:50:39.945Z,60.30
2019-02-16T09:51:42.007Z,58.35
2019-02-16T09:52:40.655Z,58.11
2019-02-16T09:53:40.521Z,57.86
2019-02-16T09:54:41.464Z,58.11
2019-02-16T09:55:40.745Z,57.13
2019-02-16T09:56:40.851Z,54.69
2019-02-16T09:57:40.963Z,54.44
2019-02-16T09:58:41.112Z,56.64
2019-02-16T09:59:41.300Z,56.64
2019-02-16T10:00:41.804Z,57.37
2019-02-16T10:01:41.579Z,54.69
2019-02-16T10:02:41.831Z,55.91
2019-02-16T10:03:41.788Z,58.59
2019-02-16T10:04:42.010Z,58.35
2019-02-16T10:05:42.212Z,57.62
2019-02-16T10:06:42.448Z,57.62
2019-02-16T10:07:42.627Z,58.35
2019-02-16T10:08:42.774Z,57.37
2019-02-16T10:09:42.889Z,58.11
2019-02-16T10:10:43.002Z,58.59
2019-02-16T10:11:43.139Z,57.62
2019-02-16T10:12:43.204Z,56.40
2019-02-16T10:13:43.488Z,58.84
2019-02-16T10:14:43.529Z,56.88
2019-02-16T10:15:43.801Z,55.18
2019-02-16T10:16:43.889Z,59.57
2019-02-16T10:17:44.105Z,61.04
2019-02-16T10:18:44.353Z,61.28
2019-02-16T10:19:44.516Z,60.79
2019-02-16T10:20:44.618Z,58.35
2019-02-16T10:21:44.743Z,72.75
2019-02-16T10:22:44.844Z,57.13
2019-02-16T10:23:44.914Z,59.57
2019-02-16T10:24:45.132Z,57.62
2019-02-16T10:25:45.338Z,58.11
2019-02-16T10:26:45.550Z,58.35
2019-02-16T10:27:45.778Z,58.35
2019-02-16T10:28:45.849Z,59.81
2019-02-16T10:29:46.139Z,58.59
2019-02-16T10:30:46.320Z,60.79
2019-02-16T10:31:46.497Z,60.06
2019-02-16T10:32:48.648Z,63.48
2019-02-16T10:33:46.678Z,55.42
2019-02-16T10:34:46.875Z,57.37
2019-02-16T10:35:47.067Z,59.57
2019-02-16T10:36:47.320Z,60.06
2019-02-16T10:37:47.471Z,61.04
2019-02-16T10:38:47.528Z,59.33
2019-02-16T10:39:47.797Z,69.09
2019-02-16T10:40:47.903Z,56.88
2019-02-16T10:41:50.013Z,54.44
2019-02-16T10:42:48.220Z,55.18
2019-02-16T10:43:48.430Z,56.88
2019-02-16T10:44:48.501Z,58.59
2019-02-16T10:45:48.844Z,58.59
2019-02-16T10:46:48.955Z,56.40
2019-02-16T10:47:49.240Z,58.35
2019-02-16T10:48:49.394Z,59.81
2019-02-16T10:49:49.524Z,52.49
2019-02-16T10:50:49.626Z,52.73
2019-02-16T10:51:49.763Z,58.11
2019-02-16T10:52:49.865Z,63.72
2019-02-16T10:53:49.964Z,53.96
2019-02-16T10:54:50.183Z,53.47
2019-02-16T10:55:50.436Z,56.40
2019-02-16T10:56:52.367Z,55.66
2019-02-16T10:57:50.641Z,51.51
2019-02-16T10:58:50.841Z,53.47
2019-02-16T10:59:51.089Z,58.35
2019-02-16T11:00:51.192Z,57.37
2019-02-16T11:01:52.212Z,58.11
2019-02-16T11:02:53.551Z,56.15
2019-02-16T11:03:53.586Z,55.42
2019-02-16T11:04:53.809Z,56.88
2019-02-16T11:05:53.112Z,57.62
2019-02-16T11:06:53.485Z,53.96
2019-02-16T11:07:53.537Z,54.93
2019-02-16T11:08:52.852Z,56.15
2019-02-16T11:09:52.499Z,56.40
2019-02-16T11:10:52.604Z,54.44
2019-02-16T11:11:52.797Z,54.69
2019-02-16T11:12:53.015Z,59.57
2019-02-16T11:13:53.235Z,53.96
2019-02-16T11:14:53.430Z,57.13
2019-02-16T11:15:53.639Z,52.98
2019-02-16T11:16:53.858Z,55.42
2019-02-16T11:17:55.850Z,54.69
2019-02-16T11:18:54.165Z,58.35
2019-02-16T11:19:54.411Z,57.62
2019-02-16T11:20:54.484Z,63.23
2019-02-16T11:21:54.626Z,61.52
2019-02-16T11:22:54.850Z,58.35
2019-02-16T11:23:55.052Z,58.35
2019-02-16T11:24:56.920Z,63.48
2019-02-16T11:25:55.456Z,58.11
2019-02-16T11:26:55.652Z,58.84
2019-02-16T11:27:55.839Z,59.81
2019-02-16T11:28:56.050Z,60.06
2019-02-16T11:29:56.283Z,58.35
2019-02-16T11:30:56.406Z,53.71
2019-02-16T11:31:56.510Z,53.22
2019-02-16T11:32:56.606Z,52.25
2019-02-16T11:33:56.830Z,53.96
2019-02-16T11:34:57.053Z,51.76
2019-02-16T11:35:57.283Z,57.62
2019-02-16T11:36:57.527Z,56.15
2019-02-16T11:37:57.617Z,56.40
2019-02-16T11:38:57.839Z,56.15
2019-02-16T11:39:58.071Z,56.64
2019-02-16T11:40:58.339Z,57.13
2019-02-16T11:41:58.486Z,57.13
2019-02-16T11:42:58.748Z,57.86
2019-02-16T11:43:58.858Z,57.62
2019-02-16T11:44:58.958Z,57.62
2019-02-16T11:45:59.180Z,56.88
2019-02-16T11:46:59.395Z,51.03
2019-02-16T11:48:00.787Z,53.71
2019-02-16T11:48:59.736Z,57.62
2019-02-16T11:49:59.938Z,59.81
2019-02-16T11:51:00.224Z,57.37
2019-02-16T11:52:00.371Z,57.13
2019-02-16T11:53:00.508Z,56.40
2019-02-16T11:54:01.094Z,56.15
2019-02-16T11:55:00.867Z,52.98
2019-02-16T11:56:00.981Z,54.44
2019-02-16T11:57:01.145Z,55.42
2019-02-16T11:58:01.293Z,56.88
2019-02-16T11:59:02.842Z,56.40
2019-02-16T12:00:01.618Z,55.18
2019-02-16T12:01:01.800Z,51.51
2019-02-16T12:02:02.020Z,56.40
2019-02-16T12:03:02.220Z,61.28
2019-02-16T12:04:02.439Z,56.40
2019-02-16T12:05:02.681Z,55.66
2019-02-16T12:06:02.764Z,55.42
2019-02-16T12:07:02.977Z,57.37
2019-02-16T12:08:03.213Z,55.91
2019-02-16T12:09:03.423Z,57.37
2019-02-16T12:10:03.658Z,54.93
2019-02-16T12:11:03.746Z,56.40
2019-02-16T12:12:04.052Z,56.40
2019-02-16T12:13:04.193Z,57.62
2019-02-16T12:14:04.273Z,57.13
2019-02-16T12:15:04.557Z,57.13
2019-02-16T12:16:04.670Z,57.37
2019-02-16T12:17:04.875Z,57.86
2019-02-16T12:18:05.084Z,56.88
2019-02-16T12:19:13.272Z,56.40
2019-02-16T12:20:13.283Z,57.37
2019-02-16T12:21:13.367Z,53.96
2019-02-16T12:22:05.840Z,53.47
2019-02-16T12:23:05.940Z,55.66
2019-02-16T12:24:06.173Z,56.64
2019-02-16T12:25:06.539Z,56.88
2019-02-16T12:26:06.427Z,56.64
2019-02-16T12:27:06.560Z,56.40
2019-02-16T12:28:06.646Z,56.64
2019-02-16T12:29:06.885Z,65.67
2019-02-16T12:30:07.105Z,56.88
2019-02-16T12:31:07.327Z,57.13
2019-02-16T12:32:07.566Z,56.88
2019-02-16T12:33:07.739Z,55.91
2019-02-16T12:34:10.647Z,56.15
2019-02-16T12:35:07.979Z,56.88
2019-02-16T12:36:08.380Z,51.76
2019-02-16T12:37:08.388Z,57.13
2019-02-16T12:38:09.058Z,55.91
2019-02-16T12:39:10.887Z,56.40
2019-02-16T12:40:12.677Z,58.11
2019-02-16T12:41:09.079Z,58.84
2019-02-16T12:42:09.255Z,58.35
2019-02-16T12:43:09.356Z,57.13
2019-02-16T12:44:09.640Z,56.15
2019-02-16T12:45:09.802Z,56.40
2019-02-16T12:46:09.906Z,56.88
2019-02-16T12:47:10.126Z,57.13
2019-02-16T12:48:10.349Z,58.35
2019-02-16T12:49:10.561Z,56.88
2019-02-16T12:50:10.763Z,58.35
2019-02-16T12:51:10.906Z,56.40
2019-02-16T12:52:10.998Z,56.64
2019-02-16T12:53:11.379Z,56.88
2019-02-16T12:54:11.771Z,57.13